sensor_id;sensor_type;location;lat;lon;timestamp;pressure;altitude;pressure_sealevel;temperature;humidity
12897;BME280;6516;35.028;32.372;2022-07-03T00:02:02;99088.00;;;24.92;58.75
12897;BME280;6516;35.028;32.372;2022-07-03T00:04:30;99092.84;;;24.89;58.97
12897;BME280;6516;35.028;32.372;2022-07-03T00:07:00;99080.66;;;24.85;59.11
12897;BME280;6516;35.028;32.372;2022-07-03T00:09:28;99087.91;;;24.84;59.42
12897;BME280;6516;35.028;32.372;2022-07-03T00:11:56;99085.03;;;24.86;59.21
12897;BME280;6516;35.028;32.372;2022-07-03T00:14:24;99085.91;;;24.86;59.21
12897;BME280;6516;35.028;32.372;2022-07-03T00:16:52;99082.78;;;24.81;59.36
12897;BME280;6516;35.028;32.372;2022-07-03T00:19:20;99083.19;;;24.77;59.68
12897;BME280;6516;35.028;32.372;2022-07-03T00:21:52;99085.75;;;24.78;59.45
12897;BME280;6516;35.028;32.372;2022-07-03T00:24:28;99095.09;;;24.74;60.30
12897;BME280;6516;35.028;32.372;2022-07-03T00:27:01;99091.72;;;24.72;60.16
12897;BME280;6516;35.028;32.372;2022-07-03T00:29:31;99088.28;;;24.70;61.04
12897;BME280;6516;35.028;32.372;2022-07-03T00:32:06;99082.47;;;24.65;60.88
12897;BME280;6516;35.028;32.372;2022-07-03T00:34:37;99087.44;;;24.60;61.26
12897;BME280;6516;35.028;32.372;2022-07-03T00:37:07;99083.28;;;24.56;61.61
12897;BME280;6516;35.028;32.372;2022-07-03T00:39:39;99088.81;;;24.55;62.15
12897;BME280;6516;35.028;32.372;2022-07-03T00:42:09;99076.50;;;24.52;62.82
12897;BME280;6516;35.028;32.372;2022-07-03T00:44:46;99083.88;;;24.50;62.98
12897;BME280;6516;35.028;32.372;2022-07-03T00:47:16;99074.63;;;24.43;63.29
12897;BME280;6516;35.028;32.372;2022-07-03T00:49:47;99075.06;;;24.39;63.95
12897;BME280;6516;35.028;32.372;2022-07-03T00:52:17;99076.06;;;24.38;64.44
12897;BME280;6516;35.028;32.372;2022-07-03T00:54:53;99081.03;;;24.33;64.49
12897;BME280;6516;35.028;32.372;2022-07-03T00:57:24;99069.66;;;24.29;64.43
12897;BME280;6516;35.028;32.372;2022-07-03T00:59:54;99074.34;;;24.27;64.47
12897;BME280;6516;35.028;32.372;2022-07-03T01:02:32;99074.91;;;24.21;65.07
12897;BME280;6516;35.028;32.372;2022-07-03T01:05:12;99070.78;;;24.17;65.09
12897;BME280;6516;35.028;32.372;2022-07-03T01:07:54;99070.78;;;24.17;65.28
12897;BME280;6516;35.028;32.372;2022-07-03T01:10:43;99064.81;;;24.14;65.26
12897;BME280;6516;35.028;32.372;2022-07-03T01:13:22;99066.94;;;24.10;65.73
12897;BME280;6516;35.028;32.372;2022-07-03T01:16:00;99062.13;;;24.14;65.38
12897;BME280;6516;35.028;32.372;2022-07-03T01:18:40;99068.06;;;24.08;65.59
12897;BME280;6516;35.028;32.372;2022-07-03T01:21:34;99067.34;;;23.96;65.97
12897;BME280;6516;35.028;32.372;2022-07-03T01:24:26;99061.75;;;23.88;66.47
12897;BME280;6516;35.028;32.372;2022-07-03T01:27:12;99058.22;;;23.88;66.82
12897;BME280;6516;35.028;32.372;2022-07-03T01:29:49;99055.53;;;23.88;67.37
12897;BME280;6516;35.028;32.372;2022-07-03T01:32:23;99063.59;;;23.88;67.08
12897;BME280;6516;35.028;32.372;2022-07-03T01:34:55;99062.75;;;23.87;67.23
12897;BME280;6516;35.028;32.372;2022-07-03T01:37:30;99050.91;;;23.90;67.45
12897;BME280;6516;35.028;32.372;2022-07-03T01:39:59;99054.16;;;23.93;67.46
12897;BME280;6516;35.028;32.372;2022-07-03T01:42:32;99056.50;;;23.87;67.62
12897;BME280;6516;35.028;32.372;2022-07-03T01:45:04;99056.06;;;23.82;67.49
12897;BME280;6516;35.028;32.372;2022-07-03T01:47:34;99057.38;;;23.87;68.09
12897;BME280;6516;35.028;32.372;2022-07-03T01:50:02;99057.63;;;23.84;68.56
12897;BME280;6516;35.028;32.372;2022-07-03T01:52:31;99055.94;;;23.83;68.28
12897;BME280;6516;35.028;32.372;2022-07-03T01:54:59;99056.22;;;23.80;68.38
12897;BME280;6516;35.028;32.372;2022-07-03T01:57:36;99056.78;;;23.84;68.53
12897;BME280;6516;35.028;32.372;2022-07-03T02:00:09;99054.50;;;23.79;68.58
12897;BME280;6516;35.028;32.372;2022-07-03T02:02:42;99064.28;;;23.80;67.73
12897;BME280;6516;35.028;32.372;2022-07-03T02:05:22;99062.13;;;23.74;67.84
12897;BME280;6516;35.028;32.372;2022-07-03T02:08:31;99062.25;;;23.73;68.00
12897;BME280;6516;35.028;32.372;2022-07-03T02:11:11;99056.19;;;23.71;67.59
12897;BME280;6516;35.028;32.372;2022-07-03T02:13:51;99058.75;;;23.72;67.60
12897;BME280;6516;35.028;32.372;2022-07-03T02:16:23;99055.47;;;23.69;67.13
12897;BME280;6516;35.028;32.372;2022-07-03T02:19:03;99057.88;;;23.72;66.67
12897;BME280;6516;35.028;32.372;2022-07-03T02:21:34;99053.50;;;23.71;66.27
12897;BME280;6516;35.028;32.372;2022-07-03T02:24:17;99063.00;;;23.75;65.69
12897;BME280;6516;35.028;32.372;2022-07-03T02:26:53;99061.28;;;23.74;65.42
12897;BME280;6516;35.028;32.372;2022-07-03T02:29:30;99061.88;;;23.77;64.12
12897;BME280;6516;35.028;32.372;2022-07-03T02:32:02;99062.44;;;23.81;63.84
12897;BME280;6516;35.028;32.372;2022-07-03T02:34:32;99075.75;;;23.82;63.22
12897;BME280;6516;35.028;32.372;2022-07-03T02:37:12;99065.00;;;23.82;63.27
12897;BME280;6516;35.028;32.372;2022-07-03T02:39:48;99065.13;;;23.81;63.47
12897;BME280;6516;35.028;32.372;2022-07-03T02:42:29;99069.38;;;23.83;62.92
12897;BME280;6516;35.028;32.372;2022-07-03T02:45:02;99063.59;;;23.88;62.56
12897;BME280;6516;35.028;32.372;2022-07-03T02:47:37;99067.25;;;23.87;62.54
12897;BME280;6516;35.028;32.372;2022-07-03T02:50:16;99063.34;;;23.91;62.15
12897;BME280;6516;35.028;32.372;2022-07-03T02:52:59;99064.78;;;23.95;61.91
12897;BME280;6516;35.028;32.372;2022-07-03T02:55:41;99059.41;;;23.95;61.65
12897;BME280;6516;35.028;32.372;2022-07-03T02:58:32;99060.53;;;23.92;61.42
12897;BME280;6516;35.028;32.372;2022-07-03T03:01:20;99059.53;;;23.93;60.95
12897;BME280;6516;35.028;32.372;2022-07-03T03:04:06;99064.78;;;23.95;60.57
12897;BME280;6516;35.028;32.372;2022-07-03T03:06:37;99060.56;;;24.02;60.37
12897;BME280;6516;35.028;32.372;2022-07-03T03:09:07;99055.19;;;24.11;58.88
12897;BME280;6516;35.028;32.372;2022-07-03T03:11:42;99057.75;;;24.13;58.61
12897;BME280;6516;35.028;32.372;2022-07-03T03:14:13;99056.06;;;24.12;58.49
12897;BME280;6516;35.028;32.372;2022-07-03T03:16:46;99051.38;;;24.14;58.98
12897;BME280;6516;35.028;32.372;2022-07-03T03:19:20;99054.94;;;24.24;58.94
12897;BME280;6516;35.028;32.372;2022-07-03T03:24:44;99059.34;;;24.44;58.55
12897;BME280;6516;35.028;32.372;2022-07-03T03:27:12;99066.72;;;24.51;58.57
12897;BME280;6516;35.028;32.372;2022-07-03T03:29:40;99063.22;;;24.60;58.71
12897;BME280;6516;35.028;32.372;2022-07-03T03:32:10;99064.06;;;24.70;59.11
12897;BME280;6516;35.028;32.372;2022-07-03T03:34:39;99061.38;;;24.80;59.19
12897;BME280;6516;35.028;32.372;2022-07-03T03:37:08;99054.13;;;24.90;59.16
12897;BME280;6516;35.028;32.372;2022-07-03T03:39:36;99059.53;;;24.99;59.24
12897;BME280;6516;35.028;32.372;2022-07-03T03:42:04;99063.03;;;25.09;59.15
12897;BME280;6516;35.028;32.372;2022-07-03T03:44:34;99063.88;;;25.19;58.95
12897;BME280;6516;35.028;32.372;2022-07-03T03:47:02;99062.03;;;25.29;58.22
12897;BME280;6516;35.028;32.372;2022-07-03T03:49:33;99064.56;;;25.40;58.53
12897;BME280;6516;35.028;32.372;2022-07-03T03:52:02;99062.41;;;25.53;58.91
12897;BME280;6516;35.028;32.372;2022-07-03T03:54:30;99058.06;;;25.70;58.99
12897;BME280;6516;35.028;32.372;2022-07-03T03:57:15;99058.44;;;25.84;58.69
12897;BME280;6516;35.028;32.372;2022-07-03T03:59:44;99060.66;;;25.98;58.67
12897;BME280;6516;35.028;32.372;2022-07-03T04:02:12;99061.16;;;26.11;58.78
12897;BME280;6516;35.028;32.372;2022-07-03T04:04:42;99054.38;;;26.25;58.39
12897;BME280;6516;35.028;32.372;2022-07-03T04:07:10;99056.56;;;26.39;58.17
12897;BME280;6516;35.028;32.372;2022-07-03T04:09:38;99058.56;;;26.54;57.63
12897;BME280;6516;35.028;32.372;2022-07-03T04:12:06;99058.22;;;26.67;57.15
12897;BME280;6516;35.028;32.372;2022-07-03T04:14:34;99061.38;;;26.80;56.60
12897;BME280;6516;35.028;32.372;2022-07-03T04:17:03;99064.38;;;26.94;55.87
12897;BME280;6516;35.028;32.372;2022-07-03T04:19:31;99065.50;;;27.09;55.00
12897;BME280;6516;35.028;32.372;2022-07-03T04:22:00;99060.28;;;27.26;54.57
12897;BME280;6516;35.028;32.372;2022-07-03T04:24:28;99053.25;;;27.41;53.95
12897;BME280;6516;35.028;32.372;2022-07-03T04:26:56;99063.84;;;27.60;53.94
12897;BME280;6516;35.028;32.372;2022-07-03T04:29:24;99063.34;;;27.82;54.84
12897;BME280;6516;35.028;32.372;2022-07-03T04:31:53;99054.47;;;28.05;54.00
12897;BME280;6516;35.028;32.372;2022-07-03T04:34:21;99060.63;;;28.31;53.92
12897;BME280;6516;35.028;32.372;2022-07-03T04:36:49;99051.94;;;28.61;53.68
12897;BME280;6516;35.028;32.372;2022-07-03T04:39:18;99054.53;;;29.11;51.94
12897;BME280;6516;35.028;32.372;2022-07-03T04:41:46;99056.69;;;29.63;50.10
12897;BME280;6516;35.028;32.372;2022-07-03T04:44:13;99057.19;;;30.05;48.10
12897;BME280;6516;35.028;32.372;2022-07-03T04:46:41;99054.00;;;30.40;45.60
12897;BME280;6516;35.028;32.372;2022-07-03T04:49:09;99053.38;;;30.61;46.59
12897;BME280;6516;35.028;32.372;2022-07-03T04:51:38;99057.00;;;30.76;46.14
12897;BME280;6516;35.028;32.372;2022-07-03T04:54:05;99059.06;;;30.96;46.26
12897;BME280;6516;35.028;32.372;2022-07-03T04:56:35;99061.63;;;31.35;45.99
12897;BME280;6516;35.028;32.372;2022-07-03T04:59:02;99054.91;;;31.60;44.77
12897;BME280;6516;35.028;32.372;2022-07-03T05:01:30;99050.88;;;32.14;43.62
12897;BME280;6516;35.028;32.372;2022-07-03T05:03:58;99049.53;;;32.53;42.39
12897;BME280;6516;35.028;32.372;2022-07-03T05:06:26;99052.34;;;33.02;40.72
12897;BME280;6516;35.028;32.372;2022-07-03T05:08:54;99047.50;;;33.46;39.70
12897;BME280;6516;35.028;32.372;2022-07-03T05:11:22;99048.25;;;33.95;38.73
12897;BME280;6516;35.028;32.372;2022-07-03T05:13:52;99045.34;;;34.50;37.68
12897;BME280;6516;35.028;32.372;2022-07-03T05:16:20;99057.06;;;34.98;37.11
12897;BME280;6516;35.028;32.372;2022-07-03T05:18:48;99048.50;;;35.33;36.18
12897;BME280;6516;35.028;32.372;2022-07-03T05:21:16;99052.69;;;35.68;35.09
12897;BME280;6516;35.028;32.372;2022-07-03T05:23:43;99049.69;;;36.02;33.70
12897;BME280;6516;35.028;32.372;2022-07-03T05:26:11;99056.28;;;36.45;33.96
12897;BME280;6516;35.028;32.372;2022-07-03T05:28:40;99050.56;;;36.91;31.78
12897;BME280;6516;35.028;32.372;2022-07-03T05:31:09;99044.75;;;37.36;31.26
12897;BME280;6516;35.028;32.372;2022-07-03T05:33:37;99045.50;;;37.19;32.39
12897;BME280;6516;35.028;32.372;2022-07-03T05:36:05;99052.09;;;37.42;32.08
12897;BME280;6516;35.028;32.372;2022-07-03T05:38:34;99042.66;;;37.32;31.73
12897;BME280;6516;35.028;32.372;2022-07-03T05:41:19;99043.84;;;38.09;31.32
12897;BME280;6516;35.028;32.372;2022-07-03T05:43:46;99049.41;;;38.03;30.71
12897;BME280;6516;35.028;32.372;2022-07-03T05:46:16;99037.00;;;37.94;31.08
12897;BME280;6516;35.028;32.372;2022-07-03T05:48:44;99032.22;;;38.07;30.74
12897;BME280;6516;35.028;32.372;2022-07-03T05:51:12;99042.59;;;38.41;30.02
12897;BME280;6516;35.028;32.372;2022-07-03T05:53:39;99046.25;;;38.35;30.52
12897;BME280;6516;35.028;32.372;2022-07-03T05:56:07;99039.69;;;38.54;30.21
12897;BME280;6516;35.028;32.372;2022-07-03T05:58:35;99043.66;;;38.40;29.78
12897;BME280;6516;35.028;32.372;2022-07-03T06:01:03;99044.66;;;38.10;29.95
12897;BME280;6516;35.028;32.372;2022-07-03T06:03:32;99046.72;;;38.32;29.45
12897;BME280;6516;35.028;32.372;2022-07-03T06:06:00;99043.91;;;38.21;29.56
12897;BME280;6516;35.028;32.372;2022-07-03T06:08:28;99038.13;;;38.11;29.01
12897;BME280;6516;35.028;32.372;2022-07-03T06:10:56;99036.75;;;38.02;29.91
12897;BME280;6516;35.028;32.372;2022-07-03T06:13:24;99031.72;;;37.74;29.99
12897;BME280;6516;35.028;32.372;2022-07-03T06:15:52;99037.34;;;37.61;31.29
12897;BME280;6516;35.028;32.372;2022-07-03T06:18:20;99044.06;;;37.16;31.82
12897;BME280;6516;35.028;32.372;2022-07-03T06:20:49;99047.88;;;36.78;32.63
12897;BME280;6516;35.028;32.372;2022-07-03T06:23:17;99047.38;;;36.56;33.53
12897;BME280;6516;35.028;32.372;2022-07-03T06:25:45;99045.06;;;36.47;32.49
12897;BME280;6516;35.028;32.372;2022-07-03T06:28:12;99045.78;;;36.36;33.52
12897;BME280;6516;35.028;32.372;2022-07-03T06:30:40;99047.66;;;36.35;33.16
12897;BME280;6516;35.028;32.372;2022-07-03T06:33:09;99048.09;;;36.39;33.03
12897;BME280;6516;35.028;32.372;2022-07-03T06:35:37;99048.22;;;36.57;33.12
12897;BME280;6516;35.028;32.372;2022-07-03T06:38:06;99043.47;;;36.77;33.18
12897;BME280;6516;35.028;32.372;2022-07-03T06:40:34;99034.47;;;36.94;33.32
12897;BME280;6516;35.028;32.372;2022-07-03T06:43:01;99036.91;;;37.09;33.59
12897;BME280;6516;35.028;32.372;2022-07-03T06:45:29;99038.94;;;37.20;34.25
12897;BME280;6516;35.028;32.372;2022-07-03T06:47:57;99042.97;;;37.42;34.08
12897;BME280;6516;35.028;32.372;2022-07-03T06:50:25;99049.56;;;37.41;34.58
12897;BME280;6516;35.028;32.372;2022-07-03T06:52:53;99044.16;;;37.52;34.46
12897;BME280;6516;35.028;32.372;2022-07-03T06:55:22;99041.75;;;37.62;34.22
12897;BME280;6516;35.028;32.372;2022-07-03T06:57:50;99044.94;;;37.66;34.90
12897;BME280;6516;35.028;32.372;2022-07-03T07:00:18;99054.94;;;37.78;35.15
12897;BME280;6516;35.028;32.372;2022-07-03T07:02:46;99054.22;;;37.65;34.70
12897;BME280;6516;35.028;32.372;2022-07-03T07:05:14;99055.97;;;37.59;34.84
12897;BME280;6516;35.028;32.372;2022-07-03T07:07:43;99055.53;;;37.56;35.12
12897;BME280;6516;35.028;32.372;2022-07-03T07:10:11;99056.88;;;37.47;34.94
12897;BME280;6516;35.028;32.372;2022-07-03T07:12:40;99054.16;;;37.22;34.42
12897;BME280;6516;35.028;32.372;2022-07-03T07:15:09;99057.19;;;37.08;34.24
12897;BME280;6516;35.028;32.372;2022-07-03T07:17:37;99059.72;;;37.16;33.00
12897;BME280;6516;35.028;32.372;2022-07-03T07:20:06;99060.38;;;37.36;33.37
12897;BME280;6516;35.028;32.372;2022-07-03T07:22:34;99052.16;;;37.60;32.18
12897;BME280;6516;35.028;32.372;2022-07-03T07:25:03;99054.09;;;37.53;32.56
12897;BME280;6516;35.028;32.372;2022-07-03T07:27:31;99057.41;;;37.37;32.87
12897;BME280;6516;35.028;32.372;2022-07-03T07:30:00;99053.38;;;37.15;34.26
12897;BME280;6516;35.028;32.372;2022-07-03T07:32:29;99063.44;;;37.21;34.72
12897;BME280;6516;35.028;32.372;2022-07-03T07:34:56;99062.31;;;37.53;34.12
12897;BME280;6516;35.028;32.372;2022-07-03T07:37:24;99069.19;;;37.69;32.86
12897;BME280;6516;35.028;32.372;2022-07-03T07:39:52;99064.84;;;37.79;31.93
12897;BME280;6516;35.028;32.372;2022-07-03T07:42:20;99070.66;;;37.89;32.17
12897;BME280;6516;35.028;32.372;2022-07-03T07:44:50;99064.28;;;37.95;32.05
12897;BME280;6516;35.028;32.372;2022-07-03T07:47:19;99064.38;;;37.64;32.55
12897;BME280;6516;35.028;32.372;2022-07-03T07:49:47;99062.31;;;37.78;31.62
12897;BME280;6516;35.028;32.372;2022-07-03T07:52:15;99063.72;;;37.87;30.86
12897;BME280;6516;35.028;32.372;2022-07-03T07:54:43;99066.81;;;38.15;31.00
12897;BME280;6516;35.028;32.372;2022-07-03T07:57:11;99064.81;;;38.40;30.27
12897;BME280;6516;35.028;32.372;2022-07-03T07:59:39;99063.00;;;38.52;29.75
12897;BME280;6516;35.028;32.372;2022-07-03T08:02:07;99062.56;;;38.66;29.46
12897;BME280;6516;35.028;32.372;2022-07-03T08:04:53;99062.16;;;38.51;28.78
12897;BME280;6516;35.028;32.372;2022-07-03T08:07:38;99062.31;;;38.56;29.12
12897;BME280;6516;35.028;32.372;2022-07-03T08:10:07;99058.28;;;38.88;29.11
12897;BME280;6516;35.028;32.372;2022-07-03T08:12:35;99059.19;;;38.82;29.01
12897;BME280;6516;35.028;32.372;2022-07-03T08:15:03;99058.13;;;39.24;29.62
12897;BME280;6516;35.028;32.372;2022-07-03T08:17:32;99061.72;;;39.13;28.87
12897;BME280;6516;35.028;32.372;2022-07-03T08:20:01;99062.50;;;39.43;28.89
12897;BME280;6516;35.028;32.372;2022-07-03T08:22:29;99061.31;;;39.62;28.48
12897;BME280;6516;35.028;32.372;2022-07-03T08:24:57;99062.38;;;39.61;29.35
12897;BME280;6516;35.028;32.372;2022-07-03T08:27:25;99073.53;;;39.43;30.18
12897;BME280;6516;35.028;32.372;2022-07-03T08:29:53;99074.53;;;39.19;29.77
12897;BME280;6516;35.028;32.372;2022-07-03T08:32:21;99074.50;;;39.08;30.09
12897;BME280;6516;35.028;32.372;2022-07-03T08:34:48;99076.53;;;39.12;29.99
12897;BME280;6516;35.028;32.372;2022-07-03T08:37:18;99079.78;;;39.09;29.46
12897;BME280;6516;35.028;32.372;2022-07-03T08:39:46;99079.34;;;38.94;29.47
12897;BME280;6516;35.028;32.372;2022-07-03T08:42:14;99086.06;;;38.98;29.61
12897;BME280;6516;35.028;32.372;2022-07-03T08:44:43;99089.91;;;38.97;29.77
12897;BME280;6516;35.028;32.372;2022-07-03T08:47:12;99086.63;;;39.18;28.43
12897;BME280;6516;35.028;32.372;2022-07-03T08:49:41;99076.66;;;39.35;28.24
12897;BME280;6516;35.028;32.372;2022-07-03T08:52:11;99083.97;;;39.41;27.96
12897;BME280;6516;35.028;32.372;2022-07-03T08:54:40;99077.81;;;39.39;28.19
12897;BME280;6516;35.028;32.372;2022-07-03T08:57:08;99073.28;;;39.56;28.28
12897;BME280;6516;35.028;32.372;2022-07-03T08:59:38;99079.34;;;39.77;27.89
12897;BME280;6516;35.028;32.372;2022-07-03T09:02:07;99074.88;;;39.87;26.75
12897;BME280;6516;35.028;32.372;2022-07-03T09:04:35;99076.31;;;40.01;26.64
12897;BME280;6516;35.028;32.372;2022-07-03T09:07:06;99077.53;;;39.94;26.86
12897;BME280;6516;35.028;32.372;2022-07-03T09:09:35;99083.03;;;40.05;26.08
12897;BME280;6516;35.028;32.372;2022-07-03T09:12:05;99079.22;;;40.06;25.64
12897;BME280;6516;35.028;32.372;2022-07-03T09:14:34;99080.66;;;40.09;25.80
12897;BME280;6516;35.028;32.372;2022-07-03T09:17:02;99086.06;;;40.04;26.24
12897;BME280;6516;35.028;32.372;2022-07-03T09:19:39;99081.13;;;40.17;24.27
12897;BME280;6516;35.028;32.372;2022-07-03T09:22:22;99080.38;;;39.99;25.48
12897;BME280;6516;35.028;32.372;2022-07-03T09:24:52;99072.25;;;39.92;24.77
12897;BME280;6516;35.028;32.372;2022-07-03T09:27:23;99081.59;;;40.03;23.93
12897;BME280;6516;35.028;32.372;2022-07-03T09:29:57;99082.91;;;40.12;23.84
12897;BME280;6516;35.028;32.372;2022-07-03T09:32:27;99078.00;;;40.14;23.82
12897;BME280;6516;35.028;32.372;2022-07-03T09:35:16;99081.56;;;40.37;23.51
12897;BME280;6516;35.028;32.372;2022-07-03T09:37:49;99078.66;;;40.44;23.30
12897;BME280;6516;35.028;32.372;2022-07-03T09:40:18;99089.47;;;40.45;23.82
12897;BME280;6516;35.028;32.372;2022-07-03T09:43:02;99088.38;;;40.58;24.35
12897;BME280;6516;35.028;32.372;2022-07-03T09:45:49;99087.53;;;40.57;24.26
12897;BME280;6516;35.028;32.372;2022-07-03T09:48:27;99078.28;;;40.52;24.93
12897;BME280;6516;35.028;32.372;2022-07-03T09:51:16;99081.28;;;40.62;25.21
12897;BME280;6516;35.028;32.372;2022-07-03T09:53:54;99076.56;;;40.74;25.35
12897;BME280;6516;35.028;32.372;2022-07-03T09:56:24;99075.56;;;40.80;24.09
12897;BME280;6516;35.028;32.372;2022-07-03T09:59:07;99080.47;;;40.89;23.54
12897;BME280;6516;35.028;32.372;2022-07-03T10:01:37;99077.78;;;40.94;24.07
12897;BME280;6516;35.028;32.372;2022-07-03T10:04:14;99073.00;;;41.01;24.93
12897;BME280;6516;35.028;32.372;2022-07-03T10:06:47;99079.47;;;40.95;24.93
12897;BME280;6516;35.028;32.372;2022-07-03T10:09:23;99073.00;;;40.90;24.62
12897;BME280;6516;35.028;32.372;2022-07-03T10:11:53;99073.88;;;40.79;25.31
12897;BME280;6516;35.028;32.372;2022-07-03T10:14:24;99071.50;;;40.71;24.96
12897;BME280;6516;35.028;32.372;2022-07-03T10:16:53;99074.31;;;40.59;25.59
12897;BME280;6516;35.028;32.372;2022-07-03T10:19:26;99074.41;;;40.64;24.37
12897;BME280;6516;35.028;32.372;2022-07-03T10:21:56;99074.94;;;40.61;25.22
12897;BME280;6516;35.028;32.372;2022-07-03T10:24:28;99079.13;;;40.52;25.13
12897;BME280;6516;35.028;32.372;2022-07-03T10:26:58;99077.00;;;40.43;25.04
12897;BME280;6516;35.028;32.372;2022-07-03T10:29:28;99068.50;;;40.33;25.56
12897;BME280;6516;35.028;32.372;2022-07-03T10:31:56;99075.00;;;40.15;26.25
12897;BME280;6516;35.028;32.372;2022-07-03T10:34:25;99083.53;;;39.91;26.11
12897;BME280;6516;35.028;32.372;2022-07-03T10:36:57;99077.28;;;39.95;26.74
12897;BME280;6516;35.028;32.372;2022-07-03T10:42:52;99078.59;;;39.93;25.80
12897;BME280;6516;35.028;32.372;2022-07-03T10:46:13;99075.16;;;39.74;26.62
12897;BME280;6516;35.028;32.372;2022-07-03T10:48:56;99077.34;;;39.42;26.62
12897;BME280;6516;35.028;32.372;2022-07-03T10:51:25;99078.50;;;39.23;26.63
12897;BME280;6516;35.028;32.372;2022-07-03T10:54:13;99073.81;;;39.24;27.52
12897;BME280;6516;35.028;32.372;2022-07-03T10:57:07;99078.38;;;39.18;26.77
12897;BME280;6516;35.028;32.372;2022-07-03T10:59:58;99080.00;;;39.37;26.75
12897;BME280;6516;35.028;32.372;2022-07-03T11:02:38;99080.47;;;39.34;26.63
12897;BME280;6516;35.028;32.372;2022-07-03T11:05:14;99079.72;;;39.27;26.63
12897;BME280;6516;35.028;32.372;2022-07-03T11:08:09;99072.72;;;39.13;27.42
12897;BME280;6516;35.028;32.372;2022-07-03T11:10:42;99072.38;;;39.21;27.35
12897;BME280;6516;35.028;32.372;2022-07-03T11:13:15;99080.00;;;39.08;27.03
12897;BME280;6516;35.028;32.372;2022-07-03T11:15:53;99076.50;;;39.01;27.16
12897;BME280;6516;35.028;32.372;2022-07-03T11:18:30;99075.31;;;38.97;26.24
12897;BME280;6516;35.028;32.372;2022-07-03T11:21:26;99070.09;;;39.18;26.20
12897;BME280;6516;35.028;32.372;2022-07-03T11:24:31;99073.00;;;39.23;26.37
12897;BME280;6516;35.028;32.372;2022-07-03T11:27:23;99073.13;;;39.28;26.51
12897;BME280;6516;35.028;32.372;2022-07-03T11:29:57;99078.19;;;39.31;25.36
12897;BME280;6516;35.028;32.372;2022-07-03T11:32:58;99083.22;;;39.34;24.65
12897;BME280;6516;35.028;32.372;2022-07-03T11:35:48;99082.63;;;39.32;25.28
12897;BME280;6516;35.028;32.372;2022-07-03T11:38:25;99091.44;;;39.23;27.44
12897;BME280;6516;35.028;32.372;2022-07-03T11:40:56;99083.84;;;39.36;26.78
12897;BME280;6516;35.028;32.372;2022-07-03T11:43:25;99085.75;;;39.47;26.23
12897;BME280;6516;35.028;32.372;2022-07-03T11:45:53;99083.34;;;39.39;25.93
12897;BME280;6516;35.028;32.372;2022-07-03T11:48:23;99086.00;;;39.46;26.13
12897;BME280;6516;35.028;32.372;2022-07-03T11:50:59;99082.41;;;39.45;26.45
12897;BME280;6516;35.028;32.372;2022-07-03T11:53:29;99079.91;;;39.55;26.12
12897;BME280;6516;35.028;32.372;2022-07-03T11:55:59;99081.03;;;39.78;24.15
12897;BME280;6516;35.028;32.372;2022-07-03T11:58:45;99081.03;;;39.78;23.93
12897;BME280;6516;35.028;32.372;2022-07-03T12:01:29;99087.63;;;39.88;23.10
12897;BME280;6516;35.028;32.372;2022-07-03T12:04:06;99082.78;;;40.07;22.68
12897;BME280;6516;35.028;32.372;2022-07-03T12:06:38;99087.63;;;39.77;24.47
12897;BME280;6516;35.028;32.372;2022-07-03T12:09:15;99075.34;;;39.61;25.29
12897;BME280;6516;35.028;32.372;2022-07-03T12:11:57;99081.78;;;39.43;26.13
12897;BME280;6516;35.028;32.372;2022-07-03T12:14:40;99082.28;;;39.52;27.52
12897;BME280;6516;35.028;32.372;2022-07-03T12:17:11;99074.66;;;39.24;25.28
12897;BME280;6516;35.028;32.372;2022-07-03T12:19:47;99077.66;;;39.23;25.33
12897;BME280;6516;35.028;32.372;2022-07-03T12:22:28;99078.50;;;39.23;23.89
12897;BME280;6516;35.028;32.372;2022-07-03T12:25:04;99092.59;;;39.15;25.23
12897;BME280;6516;35.028;32.372;2022-07-03T12:27:34;99076.38;;;39.37;24.62
12897;BME280;6516;35.028;32.372;2022-07-03T12:30:03;99087.44;;;39.48;24.15
12897;BME280;6516;35.028;32.372;2022-07-03T12:32:32;99089.97;;;39.61;23.59
12897;BME280;6516;35.028;32.372;2022-07-03T12:35:01;99090.72;;;39.80;23.65
12897;BME280;6516;35.028;32.372;2022-07-03T12:37:33;99079.59;;;39.87;24.40
12897;BME280;6516;35.028;32.372;2022-07-03T12:40:05;99082.81;;;39.84;24.70
12897;BME280;6516;35.028;32.372;2022-07-03T12:42:43;99080.66;;;40.09;24.86
12897;BME280;6516;35.028;32.372;2022-07-03T12:45:14;99078.59;;;40.04;24.33
12897;BME280;6516;35.028;32.372;2022-07-03T12:47:42;99080.38;;;40.10;25.33
12897;BME280;6516;35.028;32.372;2022-07-03T12:50:10;99074.06;;;39.87;28.72
12897;BME280;6516;35.028;32.372;2022-07-03T12:52:52;99067.88;;;39.38;32.80
12897;BME280;6516;35.028;32.372;2022-07-03T12:55:24;99065.50;;;39.01;32.04
12897;BME280;6516;35.028;32.372;2022-07-03T12:58:13;99067.88;;;38.97;32.55
12897;BME280;6516;35.028;32.372;2022-07-03T13:00:58;99062.63;;;39.07;32.14
12897;BME280;6516;35.028;32.372;2022-07-03T13:03:27;99064.22;;;39.15;32.41
12897;BME280;6516;35.028;32.372;2022-07-03T13:05:56;99066.81;;;38.98;31.01
12897;BME280;6516;35.028;32.372;2022-07-03T13:08:25;99063.34;;;38.73;32.38
12897;BME280;6516;35.028;32.372;2022-07-03T13:10:57;99061.03;;;38.88;30.91
12897;BME280;6516;35.028;32.372;2022-07-03T13:13:26;99057.69;;;38.68;30.48
12897;BME280;6516;35.028;32.372;2022-07-03T13:15:54;99054.84;;;38.75;30.90
12897;BME280;6516;35.028;32.372;2022-07-03T13:18:21;99057.59;;;38.75;30.80
12897;BME280;6516;35.028;32.372;2022-07-03T13:20:49;99054.91;;;38.86;29.55
12897;BME280;6516;35.028;32.372;2022-07-03T13:23:18;99053.75;;;38.46;30.00
12897;BME280;6516;35.028;32.372;2022-07-03T13:25:47;99057.88;;;38.55;29.68
12897;BME280;6516;35.028;32.372;2022-07-03T13:28:15;99052.50;;;38.42;29.77
12897;BME280;6516;35.028;32.372;2022-07-03T13:30:43;99050.06;;;38.52;29.25
12897;BME280;6516;35.028;32.372;2022-07-03T13:33:11;99050.56;;;38.49;29.71
12897;BME280;6516;35.028;32.372;2022-07-03T13:35:40;99044.44;;;38.47;29.06